sensor_id;sensor_type;location;lat;lon;timestamp;P1;durP1;ratioP1;P2;durP2;ratioP2
11245;SDS011;59870;50.106;8.580;2023-06-14T00:00:36;5.20;;;4.90;;
11245;SDS011;59870;50.106;8.580;2023-06-14T00:03:08;4.90;;;4.60;;
11245;SDS011;59870;50.106;8.580;2023-06-14T00:05:40;4.90;;;4.50;;
11245;SDS011;59870;50.106;8.580;2023-06-14T00:08:10;5.33;;;4.93;;
11245;SDS011;59870;50.106;8.580;2023-06-14T00:10:37;4.90;;;4.43;;
11245;SDS011;59870;50.106;8.580;2023-06-14T00:13:08;4.90;;;4.60;;
11245;SDS011;59870;50.106;8.580;2023-06-14T00:15:37;5.57;;;5.07;;
11245;SDS011;59870;50.106;8.580;2023-06-14T00:18:05;4.83;;;4.53;;
11245;SDS011;59870;50.106;8.580;2023-06-14T00:20:33;4.93;;;4.63;;
11245;SDS011;59870;50.106;8.580;2023-06-14T00:23:00;4.77;;;4.47;;
11245;SDS011;59870;50.106;8.580;2023-06-14T00:25:28;5.20;;;4.80;;
11245;SDS011;59870;50.106;8.580;2023-06-14T00:27:56;5.20;;;4.90;;
11245;SDS011;59870;50.106;8.580;2023-06-14T00:30:24;5.63;;;4.67;;
11245;SDS011;59870;50.106;8.580;2023-06-14T00:32:52;5.23;;;4.83;;
11245;SDS011;59870;50.106;8.580;2023-06-14T00:35:20;5.03;;;4.57;;
11245;SDS011;59870;50.106;8.580;2023-06-14T00:37:47;4.77;;;4.47;;
11245;SDS011;59870;50.106;8.580;2023-06-14T00:40:15;5.00;;;4.60;;
11245;SDS011;59870;50.106;8.580;2023-06-14T00:42:45;5.80;;;5.30;;
11245;SDS011;59870;50.106;8.580;2023-06-14T00:45:12;5.57;;;4.63;;
11245;SDS011;59870;50.106;8.580;2023-06-14T00:47:40;4.87;;;4.27;;
11245;SDS011;59870;50.106;8.580;2023-06-14T00:50:09;5.37;;;4.67;;
11245;SDS011;59870;50.106;8.580;2023-06-14T00:52:38;5.00;;;4.70;;
11245;SDS011;59870;50.106;8.580;2023-06-14T00:55:06;5.07;;;4.53;;
11245;SDS011;59870;50.106;8.580;2023-06-14T00:57:34;4.90;;;4.50;;
11245;SDS011;59870;50.106;8.580;2023-06-14T01:00:04;5.20;;;4.70;;
11245;SDS011;59870;50.106;8.580;2023-06-14T01:02:36;5.20;;;4.70;;
11245;SDS011;59870;50.106;8.580;2023-06-14T01:05:05;5.17;;;4.60;;
11245;SDS011;59870;50.106;8.580;2023-06-14T01:07:41;5.00;;;4.60;;
11245;SDS011;59870;50.106;8.580;2023-06-14T01:13:43;4.60;;;4.20;;
11245;SDS011;59870;50.106;8.580;2023-06-14T01:16:14;5.30;;;4.53;;
11245;SDS011;59870;50.106;8.580;2023-06-14T01:18:43;5.17;;;4.30;;
11245;SDS011;59870;50.106;8.580;2023-06-14T01:21:22;5.00;;;4.70;;
11245;SDS011;59870;50.106;8.580;2023-06-14T01:23:52;4.60;;;4.30;;
11245;SDS011;59870;50.106;8.580;2023-06-14T01:26:22;5.13;;;4.53;;
11245;SDS011;59870;50.106;8.580;2023-06-14T01:28:51;5.07;;;4.47;;
11245;SDS011;59870;50.106;8.580;2023-06-14T01:31:25;6.23;;;5.40;;
11245;SDS011;59870;50.106;8.580;2023-06-14T01:33:54;4.63;;;4.33;;
11245;SDS011;59870;50.106;8.580;2023-06-14T01:36:23;4.50;;;4.10;;
11245;SDS011;59870;50.106;8.580;2023-06-14T01:38:56;6.33;;;4.37;;
11245;SDS011;59870;50.106;8.580;2023-06-14T01:41:27;5.57;;;4.43;;
11245;SDS011;59870;50.106;8.580;2023-06-14T01:43:58;5.47;;;4.20;;
11245;SDS011;59870;50.106;8.580;2023-06-14T01:46:27;4.30;;;4.00;;
11245;SDS011;59870;50.106;8.580;2023-06-14T01:48:54;4.63;;;4.17;;
11245;SDS011;59870;50.106;8.580;2023-06-14T01:51:22;5.37;;;4.17;;
11245;SDS011;59870;50.106;8.580;2023-06-14T01:53:49;4.60;;;4.30;;
11245;SDS011;59870;50.106;8.580;2023-06-14T01:56:17;4.20;;;3.90;;
11245;SDS011;59870;50.106;8.580;2023-06-14T01:58:48;5.90;;;5.13;;
11245;SDS011;59870;50.106;8.580;2023-06-14T02:01:16;4.63;;;4.23;;
11245;SDS011;59870;50.106;8.580;2023-06-14T02:03:45;5.17;;;4.40;;
11245;SDS011;59870;50.106;8.580;2023-06-14T02:06:15;5.63;;;4.97;;
11245;SDS011;59870;50.106;8.580;2023-06-14T02:08:44;4.50;;;4.20;;
11245;SDS011;59870;50.106;8.580;2023-06-14T02:11:11;6.27;;;4.47;;
11245;SDS011;59870;50.106;8.580;2023-06-14T02:13:39;4.17;;;3.87;;
11245;SDS011;59870;50.106;8.580;2023-06-14T02:16:07;5.00;;;4.20;;
11245;SDS011;59870;50.106;8.580;2023-06-14T02:18:35;4.77;;;4.47;;
11245;SDS011;59870;50.106;8.580;2023-06-14T02:21:03;4.10;;;3.80;;
11245;SDS011;59870;50.106;8.580;2023-06-14T02:23:30;4.47;;;4.17;;
11245;SDS011;59870;50.106;8.580;2023-06-14T02:26:01;4.97;;;4.57;;
11245;SDS011;59870;50.106;8.580;2023-06-14T02:28:30;4.27;;;3.93;;
11245;SDS011;59870;50.106;8.580;2023-06-14T02:30:57;5.37;;;4.37;;
11245;SDS011;59870;50.106;8.580;2023-06-14T02:33:25;5.70;;;4.30;;
11245;SDS011;59870;50.106;8.580;2023-06-14T02:35:53;7.33;;;4.20;;
11245;SDS011;59870;50.106;8.580;2023-06-14T02:38:20;6.17;;;4.53;;
11245;SDS011;59870;50.106;8.580;2023-06-14T02:40:48;4.33;;;4.03;;
11245;SDS011;59870;50.106;8.580;2023-06-14T02:43:15;5.73;;;4.17;;
11245;SDS011;59870;50.106;8.580;2023-06-14T02:45:44;4.70;;;4.23;;
11245;SDS011;59870;50.106;8.580;2023-06-14T02:48:13;5.30;;;4.10;;
11245;SDS011;59870;50.106;8.580;2023-06-14T02:50:41;4.87;;;4.47;;
11245;SDS011;59870;50.106;8.580;2023-06-14T02:53:08;4.50;;;4.10;;
11245;SDS011;59870;50.106;8.580;2023-06-14T02:55:36;4.40;;;4.07;;
11245;SDS011;59870;50.106;8.580;2023-06-14T02:58:07;5.53;;;3.97;;
11245;SDS011;59870;50.106;8.580;2023-06-14T03:00:34;4.23;;;3.97;;
11245;SDS011;59870;50.106;8.580;2023-06-14T03:03:03;8.57;;;4.63;;
11245;SDS011;59870;50.106;8.580;2023-06-14T03:05:33;4.53;;;4.23;;
11245;SDS011;59870;50.106;8.580;2023-06-14T03:08:00;4.97;;;4.53;;
11245;SDS011;59870;50.106;8.580;2023-06-14T03:10:27;4.30;;;4.00;;
11245;SDS011;59870;50.106;8.580;2023-06-14T03:12:57;5.37;;;4.30;;
11245;SDS011;59870;50.106;8.580;2023-06-14T03:15:25;5.67;;;4.20;;
11245;SDS011;59870;50.106;8.580;2023-06-14T03:17:54;5.27;;;4.17;;
11245;SDS011;59870;50.106;8.580;2023-06-14T03:20:22;4.03;;;3.73;;
11245;SDS011;59870;50.106;8.580;2023-06-14T03:22:53;4.50;;;4.10;;
11245;SDS011;59870;50.106;8.580;2023-06-14T03:25:21;6.37;;;4.80;;
11245;SDS011;59870;50.106;8.580;2023-06-14T03:27:52;6.10;;;4.50;;
11245;SDS011;59870;50.106;8.580;2023-06-14T03:30:20;4.60;;;4.30;;
11245;SDS011;59870;50.106;8.580;2023-06-14T03:32:50;5.37;;;4.10;;
11245;SDS011;59870;50.106;8.580;2023-06-14T03:35:19;4.67;;;4.27;;
11245;SDS011;59870;50.106;8.580;2023-06-14T03:37:48;4.67;;;4.27;;
11245;SDS011;59870;50.106;8.580;2023-06-14T03:40:17;4.77;;;4.37;;
11245;SDS011;59870;50.106;8.580;2023-06-14T03:42:55;5.03;;;4.73;;
11245;SDS011;59870;50.106;8.580;2023-06-14T03:45:23;3.90;;;3.67;;
11245;SDS011;59870;50.106;8.580;2023-06-14T03:47:50;6.23;;;3.73;;
11245;SDS011;59870;50.106;8.580;2023-06-14T03:50:18;4.10;;;3.80;;
11245;SDS011;59870;50.106;8.580;2023-06-14T03:52:47;6.20;;;4.30;;
11245;SDS011;59870;50.106;8.580;2023-06-14T03:55:17;4.37;;;3.90;;
11245;SDS011;59870;50.106;8.580;2023-06-14T03:57:47;7.60;;;4.23;;
11245;SDS011;59870;50.106;8.580;2023-06-14T04:00:17;7.40;;;4.37;;
11245;SDS011;59870;50.106;8.580;2023-06-14T04:02:49;4.57;;;4.17;;
11245;SDS011;59870;50.106;8.580;2023-06-14T04:05:18;4.73;;;4.33;;
11245;SDS011;59870;50.106;8.580;2023-06-14T04:07:48;4.47;;;4.07;;
11245;SDS011;59870;50.106;8.580;2023-06-14T04:10:17;4.40;;;4.10;;
11245;SDS011;59870;50.106;8.580;2023-06-14T04:12:47;4.70;;;4.30;;
11245;SDS011;59870;50.106;8.580;2023-06-14T04:15:14;4.83;;;4.43;;
11245;SDS011;59870;50.106;8.580;2023-06-14T04:17:47;4.47;;;3.97;;
11245;SDS011;59870;50.106;8.580;2023-06-14T04:20:16;4.33;;;4.00;;
11245;SDS011;59870;50.106;8.580;2023-06-14T04:22:44;5.27;;;4.77;;
11245;SDS011;59870;50.106;8.580;2023-06-14T04:25:12;4.47;;;4.07;;
11245;SDS011;59870;50.106;8.580;2023-06-14T04:27:41;6.17;;;4.63;;
11245;SDS011;59870;50.106;8.580;2023-06-14T04:30:10;5.40;;;4.33;;
11245;SDS011;59870;50.106;8.580;2023-06-14T04:32:45;10.03;;;4.63;;
11245;SDS011;59870;50.106;8.580;2023-06-14T04:35:13;5.70;;;4.70;;
11245;SDS011;59870;50.106;8.580;2023-06-14T04:37:44;5.47;;;4.03;;
11245;SDS011;59870;50.106;8.580;2023-06-14T04:40:12;4.67;;;4.27;;
11245;SDS011;59870;50.106;8.580;2023-06-14T04:42:40;8.13;;;4.33;;
11245;SDS011;59870;50.106;8.580;2023-06-14T04:45:14;5.63;;;4.33;;
11245;SDS011;59870;50.106;8.580;2023-06-14T04:47:44;5.37;;;4.27;;
11245;SDS011;59870;50.106;8.580;2023-06-14T04:50:13;5.77;;;4.97;;
11245;SDS011;59870;50.106;8.580;2023-06-14T04:52:42;6.23;;;3.77;;
11245;SDS011;59870;50.106;8.580;2023-06-14T04:55:10;4.07;;;3.77;;
11245;SDS011;59870;50.106;8.580;2023-06-14T04:57:38;8.17;;;4.07;;
11245;SDS011;59870;50.106;8.580;2023-06-14T05:00:08;4.67;;;4.27;;
11245;SDS011;59870;50.106;8.580;2023-06-14T05:02:38;7.90;;;3.73;;
11245;SDS011;59870;50.106;8.580;2023-06-14T05:05:10;6.00;;;4.03;;
11245;SDS011;59870;50.106;8.580;2023-06-14T05:39:19;4.10;;;3.80;;
11245;SDS011;59870;50.106;8.580;2023-06-14T05:41:47;4.97;;;4.07;;
11245;SDS011;59870;50.106;8.580;2023-06-14T05:44:17;8.20;;;3.80;;
11245;SDS011;59870;50.106;8.580;2023-06-14T05:46:44;4.07;;;3.77;;
11245;SDS011;59870;50.106;8.580;2023-06-14T05:49:12;5.10;;;3.27;;
11245;SDS011;59870;50.106;8.580;2023-06-14T05:51:39;4.07;;;3.77;;
11245;SDS011;59870;50.106;8.580;2023-06-14T05:54:08;5.93;;;4.17;;
11245;SDS011;59870;50.106;8.580;2023-06-14T05:56:36;11.63;;;3.87;;
11245;SDS011;59870;50.106;8.580;2023-06-14T05:59:04;10.27;;;3.93;;
11245;SDS011;59870;50.106;8.580;2023-06-14T06:01:31;4.30;;;3.90;;
11245;SDS011;59870;50.106;8.580;2023-06-14T06:04:01;5.37;;;3.93;;
11245;SDS011;59870;50.106;8.580;2023-06-14T06:06:29;7.13;;;4.10;;
11245;SDS011;59870;50.106;8.580;2023-06-14T06:08:57;4.17;;;3.87;;
11245;SDS011;59870;50.106;8.580;2023-06-14T06:11:29;4.07;;;3.77;;
11245;SDS011;59870;50.106;8.580;2023-06-14T06:14:14;6.10;;;3.80;;
11245;SDS011;59870;50.106;8.580;2023-06-14T06:16:43;6.60;;;3.80;;
11245;SDS011;59870;50.106;8.580;2023-06-14T06:19:11;4.63;;;3.77;;
11245;SDS011;59870;50.106;8.580;2023-06-14T06:21:39;7.30;;;4.27;;
11245;SDS011;59870;50.106;8.580;2023-06-14T06:24:07;5.20;;;4.10;;
11245;SDS011;59870;50.106;8.580;2023-06-14T06:29:38;7.67;;;3.80;;
11245;SDS011;59870;50.106;8.580;2023-06-14T06:32:06;4.27;;;3.87;;
11245;SDS011;59870;50.106;8.580;2023-06-14T06:34:34;4.87;;;4.40;;
11245;SDS011;59870;50.106;8.580;2023-06-14T06:37:04;6.33;;;3.70;;
11245;SDS011;59870;50.106;8.580;2023-06-14T06:39:33;6.10;;;3.60;;
11245;SDS011;59870;50.106;8.580;2023-06-14T06:42:01;4.90;;;3.97;;
11245;SDS011;59870;50.106;8.580;2023-06-14T06:44:40;8.07;;;4.27;;
11245;SDS011;59870;50.106;8.580;2023-06-14T06:47:07;4.50;;;4.10;;
11245;SDS011;59870;50.106;8.580;2023-06-14T06:49:36;9.70;;;3.83;;
11245;SDS011;59870;50.106;8.580;2023-06-14T06:52:05;3.90;;;3.53;;
11245;SDS011;59870;50.106;8.580;2023-06-14T06:54:34;6.33;;;3.67;;
11245;SDS011;59870;50.106;8.580;2023-06-14T06:57:01;5.63;;;3.40;;
11245;SDS011;59870;50.106;8.580;2023-06-14T06:59:29;7.00;;;3.37;;
11245;SDS011;59870;50.106;8.580;2023-06-14T07:01:57;9.47;;;2.90;;
11245;SDS011;59870;50.106;8.580;2023-06-14T07:04:25;4.27;;;3.23;;
11245;SDS011;59870;50.106;8.580;2023-06-14T07:06:52;9.03;;;3.27;;
11245;SDS011;59870;50.106;8.580;2023-06-14T07:09:21;3.67;;;3.37;;
11245;SDS011;59870;50.106;8.580;2023-06-14T07:11:49;3.17;;;2.97;;
11245;SDS011;59870;50.106;8.580;2023-06-14T07:14:17;3.83;;;3.43;;
11245;SDS011;59870;50.106;8.580;2023-06-14T07:16:44;3.70;;;3.40;;
11245;SDS011;59870;50.106;8.580;2023-06-14T07:19:27;3.50;;;3.30;;
11245;SDS011;59870;50.106;8.580;2023-06-14T07:21:54;3.43;;;3.03;;
11245;SDS011;59870;50.106;8.580;2023-06-14T07:24:22;4.20;;;3.60;;
11245;SDS011;59870;50.106;8.580;2023-06-14T07:26:50;3.43;;;3.13;;
11245;SDS011;59870;50.106;8.580;2023-06-14T07:29:18;3.60;;;3.30;;
11245;SDS011;59870;50.106;8.580;2023-06-14T07:31:47;3.20;;;3.00;;
11245;SDS011;59870;50.106;8.580;2023-06-14T07:34:15;5.20;;;3.23;;
11245;SDS011;59870;50.106;8.580;2023-06-14T07:36:53;3.30;;;3.10;;
11245;SDS011;59870;50.106;8.580;2023-06-14T07:39:21;3.30;;;2.87;;
11245;SDS011;59870;50.106;8.580;2023-06-14T07:41:49;2.63;;;2.43;;
11245;SDS011;59870;50.106;8.580;2023-06-14T07:44:16;2.97;;;2.77;;
11245;SDS011;59870;50.106;8.580;2023-06-14T07:46:44;6.37;;;3.07;;
11245;SDS011;59870;50.106;8.580;2023-06-14T07:49:13;2.77;;;2.60;;
11245;SDS011;59870;50.106;8.580;2023-06-14T07:51:40;3.13;;;2.40;;
11245;SDS011;59870;50.106;8.580;2023-06-14T07:54:08;6.90;;;2.70;;
11245;SDS011;59870;50.106;8.580;2023-06-14T07:56:36;2.97;;;2.57;;
11245;SDS011;59870;50.106;8.580;2023-06-14T07:59:03;3.00;;;2.80;;
11245;SDS011;59870;50.106;8.580;2023-06-14T08:01:33;3.23;;;2.90;;
11245;SDS011;59870;50.106;8.580;2023-06-14T08:04:01;2.77;;;2.57;;
11245;SDS011;59870;50.106;8.580;2023-06-14T08:06:28;3.47;;;2.43;;
11245;SDS011;59870;50.106;8.580;2023-06-14T08:08:57;3.20;;;2.60;;
11245;SDS011;59870;50.106;8.580;2023-06-14T08:11:24;2.77;;;2.57;;
11245;SDS011;59870;50.106;8.580;2023-06-14T08:13:52;2.93;;;2.23;;
11245;SDS011;59870;50.106;8.580;2023-06-14T08:16:20;2.77;;;2.57;;
11245;SDS011;59870;50.106;8.580;2023-06-14T08:18:48;2.47;;;2.30;;
11245;SDS011;59870;50.106;8.580;2023-06-14T08:21:16;3.00;;;2.80;;
11245;SDS011;59870;50.106;8.580;2023-06-14T08:23:44;2.53;;;2.27;;
11245;SDS011;59870;50.106;8.580;2023-06-14T08:26:12;3.40;;;2.50;;
11245;SDS011;59870;50.106;8.580;2023-06-14T08:28:39;2.50;;;2.40;;
11245;SDS011;59870;50.106;8.580;2023-06-14T08:31:08;2.33;;;2.20;;
11245;SDS011;59870;50.106;8.580;2023-06-14T08:33:35;2.17;;;2.07;;
11245;SDS011;59870;50.106;8.580;2023-06-14T08:36:03;2.57;;;2.40;;
11245;SDS011;59870;50.106;8.580;2023-06-14T08:38:31;2.30;;;2.20;;
11245;SDS011;59870;50.106;8.580;2023-06-14T08:40:58;2.10;;;2.00;;
11245;SDS011;59870;50.106;8.580;2023-06-14T08:43:29;2.83;;;2.23;;
11245;SDS011;59870;50.106;8.580;2023-06-14T08:45:58;2.27;;;2.17;;
11245;SDS011;59870;50.106;8.580;2023-06-14T08:48:27;3.10;;;2.23;;
11245;SDS011;59870;50.106;8.580;2023-06-14T08:50:55;5.60;;;1.80;;
11245;SDS011;59870;50.106;8.580;2023-06-14T08:53:30;2.00;;;1.90;;
11245;SDS011;59870;50.106;8.580;2023-06-14T08:56:02;2.17;;;2.07;;
11245;SDS011;59870;50.106;8.580;2023-06-14T08:58:31;3.87;;;1.90;;
11245;SDS011;59870;50.106;8.580;2023-06-14T09:01:01;2.30;;;2.10;;
11245;SDS011;59870;50.106;8.580;2023-06-14T09:03:29;2.17;;;2.00;;
11245;SDS011;59870;50.106;8.580;2023-06-14T09:05:58;2.27;;;2.07;;
11245;SDS011;59870;50.106;8.580;2023-06-14T09:08:26;2.17;;;2.07;;
11245;SDS011;59870;50.106;8.580;2023-06-14T09:10:57;2.20;;;2.00;;
11245;SDS011;59870;50.106;8.580;2023-06-14T09:13:26;2.45;;;2.30;;
11245;SDS011;59870;50.106;8.580;2023-06-14T09:15:57;2.22;;;2.10;;
11245;SDS011;59870;50.106;8.580;2023-06-14T09:18:37;4.40;;;2.30;;
11245;SDS011;59870;50.106;8.580;2023-06-14T09:21:15;1.98;;;1.88;;
11245;SDS011;59870;50.106;8.580;2023-06-14T09:23:47;2.35;;;2.10;;
11245;SDS011;59870;50.106;8.580;2023-06-14T09:26:18;4.47;;;2.10;;
11245;SDS011;59870;50.106;8.580;2023-06-14T09:36:01;2.15;;;2.05;;
11245;SDS011;59870;50.106;8.580;2023-06-14T09:38:32;2.50;;;2.30;;
11245;SDS011;59870;50.106;8.580;2023-06-14T09:41:05;2.13;;;2.03;;
11245;SDS011;59870;50.106;8.580;2023-06-14T09:43:33;2.47;;;2.03;;
11245;SDS011;59870;50.106;8.580;2023-06-14T09:46:05;2.93;;;1.93;;
11245;SDS011;59870;50.106;8.580;2023-06-14T09:48:35;2.20;;;2.10;;
11245;SDS011;59870;50.106;8.580;2023-06-14T09:51:04;2.97;;;2.40;;
11245;SDS011;59870;50.106;8.580;2023-06-14T09:53:33;3.13;;;2.03;;
11245;SDS011;59870;50.106;8.580;2023-06-14T09:56:04;2.20;;;2.10;;
11245;SDS011;59870;50.106;8.580;2023-06-14T09:58:33;2.33;;;2.03;;
11245;SDS011;59870;50.106;8.580;2023-06-14T10:01:05;2.20;;;2.10;;
11245;SDS011;59870;50.106;8.580;2023-06-14T10:03:46;2.00;;;1.90;;
11245;SDS011;59870;50.106;8.580;2023-06-14T10:09:54;2.67;;;2.00;;
11245;SDS011;59870;50.106;8.580;2023-06-14T10:12:33;2.30;;;2.17;;
11245;SDS011;59870;50.106;8.580;2023-06-14T10:15:03;2.53;;;2.43;;
11245;SDS011;59870;50.106;8.580;2023-06-14T10:20:48;1.77;;;1.67;;
11245;SDS011;59870;50.106;8.580;2023-06-14T10:23:31;2.17;;;2.07;;
11245;SDS011;59870;50.106;8.580;2023-06-14T10:33:07;2.80;;;2.30;;
11245;SDS011;59870;50.106;8.580;2023-06-14T10:35:34;2.73;;;2.53;;
11245;SDS011;59870;50.106;8.580;2023-06-14T10:38:11;2.37;;;2.27;;
11245;SDS011;59870;50.106;8.580;2023-06-14T10:40:39;2.80;;;2.43;;
11245;SDS011;59870;50.106;8.580;2023-06-14T10:43:23;2.50;;;2.40;;
11245;SDS011;59870;50.106;8.580;2023-06-14T10:46:25;2.67;;;2.47;;
11245;SDS011;59870;50.106;8.580;2023-06-14T10:48:48;2.67;;;2.47;;
11245;SDS011;59870;50.106;8.580;2023-06-14T10:51:23;2.80;;;2.60;;
11245;SDS011;59870;50.106;8.580;2023-06-14T10:53:51;2.93;;;2.40;;
11245;SDS011;59870;50.106;8.580;2023-06-14T10:56:31;2.70;;;2.50;;
11245;SDS011;59870;50.106;8.580;2023-06-14T10:58:59;2.30;;;2.20;;
11245;SDS011;59870;50.106;8.580;2023-06-14T11:01:36;3.33;;;2.50;;
11245;SDS011;59870;50.106;8.580;2023-06-14T11:04:16;3.00;;;2.80;;
11245;SDS011;59870;50.106;8.580;2023-06-14T11:06:48;3.20;;;2.90;;
11245;SDS011;59870;50.106;8.580;2023-06-14T11:12:02;3.40;;;2.83;;
11245;SDS011;59870;50.106;8.580;2023-06-14T11:14:30;3.93;;;2.63;;
11245;SDS011;59870;50.106;8.580;2023-06-14T11:16:58;3.20;;;3.00;;
11245;SDS011;59870;50.106;8.580;2023-06-14T11:19:26;2.53;;;2.43;;
11245;SDS011;59870;50.106;8.580;2023-06-14T11:21:55;2.80;;;2.70;;
11245;SDS011;59870;50.106;8.580;2023-06-14T11:24:23;5.00;;;2.63;;
11245;SDS011;59870;50.106;8.580;2023-06-14T11:26:51;2.90;;;2.33;;
11245;SDS011;59870;50.106;8.580;2023-06-14T11:29:19;2.47;;;2.37;;
11245;SDS011;59870;50.106;8.580;2023-06-14T11:31:47;4.30;;;2.87;;
11245;SDS011;59870;50.106;8.580;2023-06-14T11:34:15;3.57;;;2.50;;
11245;SDS011;59870;50.106;8.580;2023-06-14T11:36:42;4.30;;;2.50;;
11245;SDS011;59870;50.106;8.580;2023-06-14T11:39:10;2.90;;;2.20;;
11245;SDS011;59870;50.106;8.580;2023-06-14T11:41:38;2.70;;;2.50;;
11245;SDS011;59870;50.106;8.580;2023-06-14T11:44:08;2.80;;;2.60;;
11245;SDS011;59870;50.106;8.580;2023-06-14T11:46:36;2.80;;;2.60;;
11245;SDS011;59870;50.106;8.580;2023-06-14T11:49:03;2.37;;;2.27;;
11245;SDS011;59870;50.106;8.580;2023-06-14T11:51:34;3.23;;;2.47;;
11245;SDS011;59870;50.106;8.580;2023-06-14T11:54:02;3.30;;;2.60;;
11245;SDS011;59870;50.106;8.580;2023-06-14T11:56:31;2.57;;;2.37;;
11245;SDS011;59870;50.106;8.580;2023-06-14T11:58:59;2.40;;;2.20;;
11245;SDS011;59870;50.106;8.580;2023-06-14T12:01:30;2.37;;;2.07;;
11245;SDS011;59870;50.106;8.580;2023-06-14T12:03:59;2.90;;;2.43;;
11245;SDS011;59870;50.106;8.580;2023-06-14T12:06:28;4.33;;;2.53;;
11245;SDS011;59870;50.106;8.580;2023-06-14T12:09:00;2.90;;;2.10;;
11245;SDS011;59870;50.106;8.580;2023-06-14T12:11:32;3.33;;;2.50;;
11245;SDS011;59870;50.106;8.580;2023-06-14T12:14:02;2.17;;;2.07;;
11245;SDS011;59870;50.106;8.580;2023-06-14T12:16:33;2.77;;;2.57;;
11245;SDS011;59870;50.106;8.580;2023-06-14T12:21:39;2.40;;;2.20;;
11245;SDS011;59870;50.106;8.580;2023-06-14T12:24:11;2.77;;;2.57;;
11245;SDS011;59870;50.106;8.580;2023-06-14T12:26:41;2.23;;;2.13;;
11245;SDS011;59870;50.106;8.580;2023-06-14T12:29:09;2.30;;;2.20;;
11245;SDS011;59870;50.106;8.580;2023-06-14T12:31:38;2.60;;;2.50;;
11245;SDS011;59870;50.106;8.580;2023-06-14T12:34:06;2.67;;;2.53;;
11245;SDS011;59870;50.106;8.580;2023-06-14T12:36:34;2.90;;;2.20;;
11245;SDS011;59870;50.106;8.580;2023-06-14T12:39:07;3.70;;;2.93;;
11245;SDS011;59870;50.106;8.580;2023-06-14T12:41:35;3.40;;;2.70;;
11245;SDS011;59870;50.106;8.580;2023-06-14T12:44:12;2.53;;;2.33;;
11245;SDS011;59870;50.106;8.580;2023-06-14T12:46:44;4.53;;;2.67;;
11245;SDS011;59870;50.106;8.580;2023-06-14T12:49:11;3.00;;;2.50;;
11245;SDS011;59870;50.106;8.580;2023-06-14T12:51:41;3.07;;;2.97;;
11245;SDS011;59870;50.106;8.580;2023-06-14T12:54:08;2.53;;;2.33;;
11245;SDS011;59870;50.106;8.580;2023-06-14T12:56:36;4.33;;;2.77;;
11245;SDS011;59870;50.106;8.580;2023-06-14T12:59:04;2.87;;;2.67;;
11245;SDS011;59870;50.106;8.580;2023-06-14T13:01:31;3.60;;;2.50;;
11245;SDS011;59870;50.106;8.580;2023-06-14T13:03:59;2.70;;;2.60;;
11245;SDS011;59870;50.106;8.580;2023-06-14T13:06:26;2.63;;;2.53;;
11245;SDS011;59870;50.106;8.580;2023-06-14T13:08:55;2.97;;;2.77;;
11245;SDS011;59870;50.106;8.580;2023-06-14T13:11:24;4.47;;;3.20;;
11245;SDS011;59870;50.106;8.580;2023-06-14T13:13:52;2.70;;;2.60;;
11245;SDS011;59870;50.106;8.580;2023-06-14T13:16:20;3.70;;;2.50;;
11245;SDS011;59870;50.106;8.580;2023-06-14T13:18:47;4.80;;;2.80;;
11245;SDS011;59870;50.106;8.580;2023-06-14T13:21:15;2.83;;;2.63;;
11245;SDS011;59870;50.106;8.580;2023-06-14T13:23:42;3.00;;;2.50;;
11245;SDS011;59870;50.106;8.580;2023-06-14T13:26:10;5.10;;;3.20;;
11245;SDS011;59870;50.106;8.580;2023-06-14T13:28:37;5.73;;;3.17;;
11245;SDS011;59870;50.106;8.580;2023-06-14T13:31:04;4.37;;;2.70;;
11245;SDS011;59870;50.106;8.580;2023-06-14T13:33:32;4.40;;;2.47;;
11245;SDS011;59870;50.106;8.580;2023-06-14T13:36:00;2.80;;;2.70;;
11245;SDS011;59870;50.106;8.580;2023-06-14T13:38:27;2.90;;;2.70;;
11245;SDS011;59870;50.106;8.580;2023-06-14T13:40:56;4.03;;;3.20;;
11245;SDS011;59870;50.106;8.580;2023-06-14T13:43:23;3.50;;;3.07;;
11245;SDS011;59870;50.106;8.580;2023-06-14T13:45:51;3.93;;;2.50;;
11245;SDS011;59870;50.106;8.580;2023-06-14T13:48:18;2.87;;;2.67;;
11245;SDS011;59870;50.106;8.580;2023-06-14T13:50:46;3.50;;;2.80;;
11245;SDS011;59870;50.106;8.580;2023-06-14T13:53:14;2.90;;;2.80;;
11245;SDS011;59870;50.106;8.580;2023-06-14T13:55:42;2.63;;;2.43;;
11245;SDS011;59870;50.106;8.580;2023-06-14T13:58:09;5.27;;;2.90;;
11245;SDS011;59870;50.106;8.580;2023-06-14T14:00:37;4.50;;;2.83;;
11245;SDS011;59870;50.106;8.580;2023-06-14T14:03:07;2.60;;;2.50;;
11245;SDS011;59870;50.106;8.580;2023-06-14T14:05:35;2.80;;;2.60;;
11245;SDS011;59870;50.106;8.580;2023-06-14T14:08:03;2.50;;;2.40;;
11245;SDS011;59870;50.106;8.580;2023-06-14T14:10:31;3.00;;;2.80;;
11245;SDS011;59870;50.106;8.580;2023-06-14T14:12:58;2.40;;;2.30;;
11245;SDS011;59870;50.106;8.580;2023-06-14T14:15:26;2.60;;;2.50;;
11245;SDS011;59870;50.106;8.580;2023-06-14T14:17:55;2.93;;;2.73;;
11245;SDS011;59870;50.106;8.580;2023-06-14T14:20:24;3.03;;;2.83;;
11245;SDS011;59870;50.106;8.580;2023-06-14T14:22:52;3.37;;;3.07;;
11245;SDS011;59870;50.106;8.580;2023-06-14T14:25:19;3.43;;;2.60;;
11245;SDS011;59870;50.106;8.580;2023-06-14T14:27:47;3.60;;;3.30;;
11245;SDS011;59870;50.106;8.580;2023-06-14T14:30:14;2.53;;;2.43;;
11245;SDS011;59870;50.106;8.580;2023-06-14T14:32:44;2.73;;;2.50;;
11245;SDS011;59870;50.106;8.580;2023-06-14T14:35:11;2.30;;;2.20;;
11245;SDS011;59870;50.106;8.580;2023-06-14T14:37:39;2.70;;;2.60;;
11245;SDS011;59870;50.106;8.580;2023-06-14T14:40:06;3.50;;;2.50;;
11245;SDS011;59870;50.106;8.580;2023-06-14T14:42:36;3.13;;;2.37;;
11245;SDS011;59870;50.106;8.580;2023-06-14T14:45:04;4.40;;;2.30;;
11245;SDS011;59870;50.106;8.580;2023-06-14T14:47:32;2.80;;;2.60;;
11245;SDS011;59870;50.106;8.580;2023-06-14T14:50:00;2.33;;;2.23;;
11245;SDS011;59870;50.106;8.580;2023-06-14T14:52:28;2.73;;;2.53;;
11245;SDS011;59870;50.106;8.580;2023-06-14T14:54:55;4.60;;;2.90;;
11245;SDS011;59870;50.106;8.580;2023-06-14T14:57:23;7.80;;;2.60;;
11245;SDS011;59870;50.106;8.580;2023-06-14T14:59:50;3.10;;;2.80;;
11245;SDS011;59870;50.106;8.580;2023-06-14T15:02:18;3.47;;;3.20;;
11245;SDS011;59870;50.106;8.580;2023-06-14T15:04:50;3.13;;;2.70;;
11245;SDS011;59870;50.106;8.580;2023-06-14T15:07:19;2.20;;;2.10;;
11245;SDS011;59870;50.106;8.580;2023-06-14T15:09:46;3.10;;;2.90;;
11245;SDS011;59870;50.106;8.580;2023-06-14T15:12:17;2.33;;;2.23;;
11245;SDS011;59870;50.106;8.580;2023-06-14T15:14:46;3.37;;;3.03;;
11245;SDS011;59870;50.106;8.580;2023-06-14T15:17:14;2.60;;;2.50;;
11245;SDS011;59870;50.106;8.580;2023-06-14T15:19:41;2.87;;;2.67;;
11245;SDS011;59870;50.106;8.580;2023-06-14T15:22:09;4.93;;;2.40;;
11245;SDS011;59870;50.106;8.580;2023-06-14T15:24:37;2.60;;;2.50;;
11245;SDS011;59870;50.106;8.580;2023-06-14T15:27:11;2.60;;;2.40;;
11245;SDS011;59870;50.106;8.580;2023-06-14T15:29:41;2.53;;;2.33;;
11245;SDS011;59870;50.106;8.580;2023-06-14T15:32:09;2.63;;;2.53;;
11245;SDS011;59870;50.106;8.580;2023-06-14T15:34:36;2.93;;;2.73;;
11245;SDS011;59870;50.106;8.580;2023-06-14T15:37:06;2.80;;;2.60;;
11245;SDS011;59870;50.106;8.580;2023-06-14T15:39:34;2.70;;;2.50;;
11245;SDS011;59870;50.106;8.580;2023-06-14T15:42:02;2.87;;;2.10;;
11245;SDS011;59870;50.106;8.580;2023-06-14T15:44:30;2.50;;;2.30;;
11245;SDS011;59870;50.106;8.580;2023-06-14T15:46:57;5.40;;;2.60;;
11245;SDS011;59870;50.106;8.580;2023-06-14T15:49:25;3.53;;;2.50;;
11245;SDS011;59870;50.106;8.580;2023-06-14T15:51:53;2.63;;;2.53;;
11245;SDS011;59870;50.106;8.580;2023-06-14T15:54:20;4.17;;;2.50;;
11245;SDS011;59870;50.106;8.580;2023-06-14T15:56:48;2.93;;;2.70;;
11245;SDS011;59870;50.106;8.580;2023-06-14T15:59:17;3.57;;;3.10;;
11245;SDS011;59870;50.106;8.580;2023-06-14T16:01:44;2.67;;;2.47;;
11245;SDS011;59870;50.106;8.580;2023-06-14T16:04:12;3.10;;;2.90;;